createdAt,value
2017-12-05T00:00:17.896Z,5.10
2017-12-05T00:02:45.764Z,5.10
2017-12-05T00:05:13.630Z,5.10
2017-12-05T00:07:41.498Z,5.10
2017-12-05T00:10:09.365Z,5.20
2017-12-05T00:12:37.233Z,5.10
2017-12-05T00:15:05.100Z,5.10
2017-12-05T00:17:32.968Z,5.10
2017-12-05T00:20:00.834Z,5.10
2017-12-05T00:22:28.702Z,5.10
2017-12-05T00:24:56.569Z,5.10
2017-12-05T00:27:24.437Z,5.10
2017-12-05T00:29:52.237Z,5.20
2017-12-05T00:32:20.888Z,5.20
2017-12-05T00:34:48.755Z,5.20
2017-12-05T00:37:16.622Z,5.20
2017-12-05T00:39:44.490Z,5.20
2017-12-05T00:42:12.358Z,5.10
2017-12-05T00:44:40.224Z,5.20
2017-12-05T00:47:08.092Z,5.10
2017-12-05T00:49:35.959Z,5.00
2017-12-05T00:52:03.827Z,5.10
2017-12-05T00:54:31.694Z,5.00
2017-12-05T00:56:59.560Z,5.00
2017-12-05T00:59:27.430Z,5.00
2017-12-05T01:01:55.296Z,4.90
2017-12-05T01:04:23.162Z,4.90
2017-12-05T01:06:51.851Z,4.80
2017-12-05T01:09:19.719Z,4.80
2017-12-05T01:11:47.512Z,4.80
2017-12-05T01:14:15.350Z,4.80
2017-12-05T01:16:43.220Z,4.70
2017-12-05T01:19:11.084Z,4.70
2017-12-05T01:21:38.951Z,4.80
2017-12-05T01:24:06.817Z,4.80
2017-12-05T01:26:34.686Z,4.90
2017-12-05T01:29:02.553Z,5.00
2017-12-05T01:31:30.420Z,4.90
2017-12-05T01:33:58.288Z,4.90
2017-12-05T01:36:26.155Z,4.90
2017-12-05T01:38:54.022Z,4.90
2017-12-05T01:41:21.893Z,4.80
2017-12-05T01:43:49.757Z,4.90
2017-12-05T01:46:17.624Z,4.80
2017-12-05T01:48:45.491Z,4.90
2017-12-05T01:51:13.382Z,4.90
2017-12-05T01:53:42.045Z,5.00
2017-12-05T01:56:09.912Z,4.90
2017-12-05T01:58:37.882Z,4.90
2017-12-05T02:01:05.852Z,5.00
2017-12-05T02:03:33.719Z,5.10
2017-12-05T02:06:01.587Z,5.10
2017-12-05T02:08:29.559Z,4.90
2017-12-05T02:10:57.527Z,4.90
2017-12-05T02:13:25.496Z,4.80
2017-12-05T02:15:53.363Z,4.90
2017-12-05T02:18:21.158Z,5.00
2017-12-05T02:20:49.098Z,5.00
2017-12-05T02:23:16.969Z,5.00
2017-12-05T02:25:44.832Z,5.00
2017-12-05T02:28:12.700Z,4.80
2017-12-05T02:30:40.567Z,4.70
2017-12-05T02:33:08.434Z,4.70
2017-12-05T02:35:36.302Z,4.60
2017-12-05T02:38:04.988Z,4.60
2017-12-05T02:40:44.733Z,4.60
2017-12-05T02:43:12.601Z,4.60
2017-12-05T02:45:40.468Z,4.60
2017-12-05T02:48:08.337Z,4.60
2017-12-05T02:50:36.204Z,4.70
2017-12-05T02:53:04.070Z,4.70
2017-12-05T02:55:31.873Z,4.70
2017-12-05T02:58:00.888Z,4.70
2017-12-05T03:00:28.799Z,4.70
2017-12-05T03:02:56.667Z,4.70
2017-12-05T03:05:24.533Z,4.80
2017-12-05T03:07:52.399Z,4.80
2017-12-05T03:10:20.268Z,4.90
2017-12-05T03:12:48.136Z,5.00
2017-12-05T03:15:16.002Z,5.00
2017-12-05T03:17:43.869Z,5.10
2017-12-05T03:20:11.737Z,5.10
2017-12-05T03:22:39.604Z,5.20
2017-12-05T03:25:07.471Z,5.20
2017-12-05T03:27:35.339Z,5.10
2017-12-05T03:30:03.208Z,5.20
2017-12-05T03:32:31.074Z,5.20
2017-12-05T03:35:10.821Z,5.20
2017-12-05T03:37:38.687Z,5.20
2017-12-05T03:40:06.554Z,5.20
2017-12-05T03:42:34.421Z,5.20
2017-12-05T03:45:02.292Z,5.20
2017-12-05T03:47:30.155Z,5.10
2017-12-05T03:49:58.025Z,5.10
2017-12-05T03:52:25.890Z,5.10
2017-12-05T03:54:53.758Z,5.00
2017-12-05T03:57:22.445Z,5.00
2017-12-05T03:59:50.209Z,5.00
2017-12-05T04:02:17.976Z,4.90
2017-12-05T04:04:45.842Z,5.00
2017-12-05T04:07:13.710Z,5.00
2017-12-05T04:09:41.576Z,5.00
2017-12-05T04:12:09.443Z,5.00
2017-12-05T04:14:37.312Z,5.00
2017-12-05T04:17:05.180Z,5.00
2017-12-05T04:19:33.052Z,5.00
2017-12-05T04:22:01.733Z,4.90
2017-12-05T04:24:29.599Z,4.90
2017-12-05T04:26:57.466Z,4.90
2017-12-05T04:29:25.334Z,4.90
2017-12-05T04:31:53.202Z,4.90
2017-12-05T04:34:21.068Z,4.90
2017-12-05T04:36:48.935Z,4.90
2017-12-05T04:39:16.805Z,4.90
2017-12-05T04:41:44.671Z,4.90
2017-12-05T04:44:12.538Z,4.90
2017-12-05T04:46:40.406Z,4.90
2017-12-05T04:49:08.272Z,4.80
2017-12-05T04:51:36.139Z,4.80
2017-12-05T04:54:04.008Z,4.80
2017-12-05T04:56:34.447Z,4.80
2017-12-05T04:59:02.609Z,4.80
2017-12-05T05:01:30.621Z,4.80
2017-12-05T05:03:59.265Z,4.80
2017-12-05T05:06:27.132Z,4.80
2017-12-05T05:08:54.999Z,4.80
2017-12-05T05:11:22.868Z,4.80
2017-12-05T05:13:50.733Z,4.80
2017-12-05T05:16:18.601Z,4.80
2017-12-05T05:18:46.367Z,4.70
2017-12-05T05:21:14.233Z,4.70
2017-12-05T05:23:42.101Z,4.80
2017-12-05T05:26:09.868Z,4.80
2017-12-05T05:28:37.633Z,4.80
2017-12-05T05:31:05.425Z,4.70
2017-12-05T05:33:33.263Z,4.80
2017-12-05T05:36:01.133Z,4.70
2017-12-05T05:38:28.999Z,4.60
2017-12-05T05:40:56.864Z,4.60
2017-12-05T05:43:24.733Z,4.60
2017-12-05T05:45:52.599Z,4.60
2017-12-05T05:48:20.467Z,4.60
2017-12-05T05:50:48.334Z,4.50
2017-12-05T05:53:16.202Z,4.50
2017-12-05T05:55:44.068Z,4.50
2017-12-05T05:58:11.937Z,4.50
2017-12-05T06:00:39.857Z,4.50
2017-12-05T06:03:08.490Z,4.50
2017-12-05T06:05:36.356Z,4.50
2017-12-05T06:08:04.225Z,4.50
2017-12-05T06:10:32.091Z,4.50
2017-12-05T06:12:59.972Z,4.40
2017-12-05T06:15:27.827Z,4.40
2017-12-05T06:17:55.693Z,4.50
2017-12-05T06:20:23.560Z,4.40
2017-12-05T06:22:51.427Z,4.40
2017-12-05T06:25:19.295Z,4.40
2017-12-05T06:27:47.162Z,4.40
2017-12-05T06:30:21.306Z,4.40
2017-12-05T06:32:49.964Z,4.40
2017-12-05T06:35:17.830Z,4.40
2017-12-05T06:37:45.698Z,4.30
2017-12-05T06:40:13.567Z,4.30
2017-12-05T06:42:41.434Z,4.30
2017-12-05T06:45:09.404Z,4.30
2017-12-05T06:47:37.268Z,4.40
2017-12-05T06:50:05.137Z,4.50
2017-12-05T06:52:33.004Z,4.50
2017-12-05T06:55:00.974Z,4.50
2017-12-05T06:57:28.843Z,4.60
2017-12-05T06:59:56.709Z,4.60
2017-12-05T07:02:24.578Z,4.70
2017-12-05T07:04:52.442Z,4.70
2017-12-05T07:07:20.314Z,4.70
2017-12-05T07:09:48.181Z,4.70
2017-12-05T07:12:16.045Z,4.60
2017-12-05T07:14:43.911Z,4.60
2017-12-05T07:17:11.780Z,4.50
2017-12-05T07:19:39.748Z,4.50
2017-12-05T07:22:07.616Z,4.50
2017-12-05T07:24:35.483Z,4.60
2017-12-05T07:27:03.350Z,4.70
2017-12-05T07:29:31.217Z,4.80
2017-12-05T07:31:59.186Z,4.80
2017-12-05T07:34:27.059Z,4.90
2017-12-05T07:36:55.025Z,4.90
2017-12-05T07:39:22.891Z,5.00
2017-12-05T07:41:50.759Z,5.00
2017-12-05T07:44:18.627Z,5.00
2017-12-05T07:46:46.494Z,5.00
2017-12-05T07:49:14.464Z,5.00
2017-12-05T07:51:42.331Z,5.00
2017-12-05T07:54:10.300Z,5.10
2017-12-05T07:56:38.168Z,5.10
2017-12-05T07:59:05.928Z,5.10
2017-12-05T08:01:33.807Z,5.10
2017-12-05T08:04:01.668Z,5.10
2017-12-05T08:06:29.535Z,5.00
2017-12-05T08:08:57.506Z,5.00
2017-12-05T08:11:25.577Z,5.00
2017-12-05T08:13:53.549Z,5.00
2017-12-05T08:16:21.516Z,5.00
2017-12-05T08:18:49.485Z,5.10
2017-12-05T08:21:17.455Z,5.20
2017-12-05T08:23:45.425Z,5.20
2017-12-05T08:26:13.292Z,5.30
2017-12-05T08:28:41.262Z,5.20
2017-12-05T08:31:09.231Z,5.30
2017-12-05T08:33:37.201Z,5.20
2017-12-05T08:36:04.993Z,5.20
2017-12-05T08:38:33.653Z,5.40
2017-12-05T08:41:01.520Z,5.40
2017-12-05T08:43:29.489Z,5.50
2017-12-05T08:45:57.387Z,5.60
2017-12-05T08:48:25.328Z,5.60
2017-12-05T08:50:53.194Z,5.50
2017-12-05T08:53:21.061Z,5.50
2017-12-05T08:55:48.929Z,5.50
2017-12-05T08:58:16.796Z,5.60
2017-12-05T09:00:44.664Z,5.60
2017-12-05T09:03:12.530Z,5.70
2017-12-05T09:05:40.398Z,6.00
2017-12-05T09:08:08.265Z,6.70
2017-12-05T09:10:36.132Z,8.00
2017-12-05T09:13:03.999Z,9.50
2017-12-05T09:15:31.867Z,10.80
2017-12-05T09:17:59.734Z,11.60
2017-12-05T09:20:27.602Z,12.00
2017-12-05T09:22:55.472Z,11.50
2017-12-05T09:25:23.336Z,10.60
2017-12-05T09:27:51.203Z,10.20
2017-12-05T09:30:19.071Z,10.60
2017-12-05T09:32:46.938Z,10.20
2017-12-05T09:35:14.806Z,10.70
2017-12-05T09:37:42.673Z,11.40
2017-12-05T09:40:10.643Z,11.20
2017-12-05T09:42:38.511Z,10.90
2017-12-05T09:45:07.195Z,9.70
2017-12-05T09:47:35.064Z,9.70
2017-12-05T09:50:02.931Z,9.30
2017-12-05T09:52:30.797Z,9.30
2017-12-05T09:54:58.670Z,10.40
2017-12-05T09:57:26.532Z,10.50
2017-12-05T09:59:54.400Z,11.10
2017-12-05T10:02:22.278Z,12.00
2017-12-05T10:04:50.237Z,13.00
2017-12-05T10:07:18.104Z,12.60
2017-12-05T10:09:45.972Z,11.60
2017-12-05T10:12:13.839Z,10.90
2017-12-05T10:14:41.707Z,10.20
2017-12-05T10:17:09.576Z,9.70
2017-12-05T10:19:37.443Z,9.40
2017-12-05T10:22:05.308Z,8.90
2017-12-05T10:24:33.175Z,8.60
2017-12-05T10:27:01.043Z,8.40
2017-12-05T10:29:28.909Z,8.20
2017-12-05T10:31:56.777Z,8.10
2017-12-05T10:34:24.644Z,8.10
2017-12-05T10:36:52.511Z,8.10
2017-12-05T10:39:20.379Z,8.00
2017-12-05T10:41:48.247Z,7.90
2017-12-05T10:44:16.159Z,7.90
2017-12-05T10:46:44.801Z,7.70
2017-12-05T10:49:12.659Z,7.70
2017-12-05T10:51:40.535Z,7.70
2017-12-05T10:54:08.402Z,7.70
2017-12-05T10:56:36.270Z,7.80
2017-12-05T10:59:04.136Z,7.90
2017-12-05T11:01:32.004Z,7.90
2017-12-05T11:03:59.799Z,8.00
2017-12-05T11:06:28.455Z,8.10
2017-12-05T11:08:56.427Z,8.10
2017-12-05T11:11:24.397Z,8.10
2017-12-05T11:13:52.314Z,8.00
2017-12-05T11:16:20.956Z,7.80
2017-12-05T11:18:48.816Z,7.80
2017-12-05T11:21:16.786Z,7.80
2017-12-05T11:23:44.652Z,7.80
2017-12-05T11:26:12.521Z,7.90
2017-12-05T11:28:40.387Z,7.90
2017-12-05T11:31:08.255Z,7.90
2017-12-05T11:33:36.121Z,8.00
2017-12-05T11:36:03.990Z,8.00
2017-12-05T11:38:31.856Z,8.10
2017-12-05T11:40:59.724Z,8.00
2017-12-05T11:43:27.592Z,8.00
2017-12-05T11:45:55.458Z,8.00
2017-12-05T11:48:23.338Z,7.90
2017-12-05T11:50:51.194Z,7.90
2017-12-05T11:53:19.060Z,7.90
2017-12-05T11:55:46.927Z,7.90
2017-12-05T11:58:14.798Z,8.00
2017-12-05T12:00:42.668Z,8.10
2017-12-05T12:03:10.532Z,8.10
2017-12-05T12:05:38.398Z,8.00
2017-12-05T12:08:06.264Z,8.00
2017-12-05T12:10:34.132Z,7.90
2017-12-05T12:13:01.999Z,7.90
2017-12-05T12:15:29.866Z,7.80
2017-12-05T12:17:57.733Z,7.90
2017-12-05T12:20:25.602Z,7.90
2017-12-05T12:22:53.470Z,7.80
2017-12-05T12:25:21.340Z,7.80
2017-12-05T12:27:49.203Z,7.70
2017-12-05T12:30:17.072Z,7.70
2017-12-05T12:32:44.938Z,7.70
2017-12-05T12:35:12.804Z,7.70
2017-12-05T12:37:40.672Z,7.70
2017-12-05T12:40:08.540Z,7.70
2017-12-05T12:42:36.407Z,7.80
2017-12-05T12:45:04.274Z,7.70
2017-12-05T12:47:32.140Z,7.70
2017-12-05T12:50:00.009Z,7.80
2017-12-05T12:52:27.875Z,7.80
2017-12-05T12:54:55.743Z,7.70
2017-12-05T12:57:23.610Z,7.80
2017-12-05T12:59:51.477Z,7.70
2017-12-05T13:02:20.164Z,7.70
2017-12-05T13:04:48.032Z,7.70
2017-12-05T13:07:15.899Z,7.80
2017-12-05T13:09:43.778Z,7.90
2017-12-05T13:12:11.633Z,7.80
2017-12-05T13:14:39.501Z,7.90
2017-12-05T13:17:07.368Z,7.80
2017-12-05T13:19:35.235Z,7.80
2017-12-05T13:22:03.103Z,7.80
2017-12-05T13:24:30.972Z,7.70
2017-12-05T13:26:58.837Z,7.70
2017-12-05T13:29:26.705Z,7.70
2017-12-05T13:31:54.572Z,7.70
2017-12-05T13:34:22.438Z,7.70
2017-12-05T13:36:50.306Z,7.70
2017-12-05T13:39:18.173Z,7.70
2017-12-05T13:41:46.041Z,7.70
2017-12-05T13:44:13.907Z,7.70
2017-12-05T13:46:41.775Z,7.70
2017-12-05T13:49:09.643Z,7.70
2017-12-05T13:51:37.563Z,7.60
2017-12-05T13:54:06.196Z,7.60
2017-12-05T13:56:34.064Z,7.50
2017-12-05T13:59:01.931Z,7.60
2017-12-05T14:01:30.622Z,7.50
2017-12-05T14:03:58.485Z,7.50
2017-12-05T14:06:26.352Z,7.50
2017-12-05T14:08:54.219Z,7.50
2017-12-05T14:11:22.086Z,7.50
2017-12-05T14:13:49.954Z,7.40
2017-12-05T14:16:17.820Z,7.40
2017-12-05T14:18:45.688Z,7.40
2017-12-05T14:21:13.556Z,7.40
2017-12-05T14:23:41.423Z,7.40
2017-12-05T14:26:09.289Z,7.30
2017-12-05T14:28:37.157Z,7.30
2017-12-05T14:31:05.131Z,7.30
2017-12-05T14:33:32.997Z,7.30
2017-12-05T14:36:00.862Z,7.30
2017-12-05T14:38:28.729Z,7.20
2017-12-05T14:40:56.596Z,7.20
2017-12-05T14:43:25.282Z,7.20
2017-12-05T14:45:53.150Z,7.20
2017-12-05T14:48:21.017Z,7.20
2017-12-05T14:50:48.884Z,7.20
2017-12-05T14:53:16.753Z,7.20
2017-12-05T14:55:45.439Z,7.20
2017-12-05T14:58:13.408Z,7.20
2017-12-05T15:00:41.278Z,7.20
2017-12-05T15:03:09.144Z,7.20
2017-12-05T15:05:37.010Z,7.20
2017-12-05T15:08:04.806Z,7.20
2017-12-05T15:10:32.643Z,7.20
2017-12-05T15:13:00.438Z,7.20
2017-12-05T15:15:28.275Z,7.00
2017-12-05T15:17:56.141Z,7.10
2017-12-05T15:20:24.010Z,7.00
2017-12-05T15:22:51.876Z,7.00
2017-12-05T15:25:19.745Z,7.00
2017-12-05T15:27:47.611Z,6.90
2017-12-05T15:30:15.479Z,6.90
2017-12-05T15:32:43.341Z,6.90
2017-12-05T15:35:11.212Z,6.90
2017-12-05T15:37:39.081Z,7.00
2017-12-05T15:40:06.885Z,7.00
2017-12-05T15:42:35.531Z,6.90
2017-12-05T15:45:03.398Z,6.90
2017-12-05T15:47:31.267Z,6.90
2017-12-05T15:49:59.133Z,6.90
2017-12-05T15:52:27.059Z,7.00
2017-12-05T15:54:55.688Z,7.00
2017-12-05T15:57:23.570Z,6.90
2017-12-05T15:59:51.422Z,7.00
2017-12-05T16:02:19.290Z,7.00
2017-12-05T16:04:47.156Z,7.00
2017-12-05T16:07:15.024Z,6.90
2017-12-05T16:09:42.894Z,6.90
2017-12-05T16:12:10.758Z,6.90
2017-12-05T16:14:38.626Z,6.90
2017-12-05T16:17:06.493Z,6.90
2017-12-05T16:19:34.361Z,6.90
2017-12-05T16:22:02.232Z,6.90
2017-12-05T16:24:30.095Z,6.80
2017-12-05T16:26:58.575Z,6.90
2017-12-05T16:29:28.731Z,6.90
2017-12-05T16:31:56.769Z,6.90
2017-12-05T16:34:24.636Z,6.80
2017-12-05T16:36:52.503Z,6.80
2017-12-05T16:39:20.371Z,6.90
2017-12-05T16:41:48.238Z,6.80
2017-12-05T16:44:16.105Z,6.80
2017-12-05T16:46:43.975Z,6.80
2017-12-05T16:49:11.840Z,6.90
2017-12-05T16:51:39.706Z,6.90
2017-12-05T16:54:07.578Z,6.90
2017-12-05T16:56:35.442Z,6.90
2017-12-05T16:59:05.032Z,6.90
2017-12-05T17:01:35.208Z,6.90
2017-12-05T17:04:03.141Z,6.80
2017-12-05T17:06:31.109Z,6.80
2017-12-05T17:08:58.976Z,6.80
2017-12-05T17:11:26.983Z,6.80
2017-12-05T17:13:55.632Z,6.80
2017-12-05T17:16:23.499Z,6.80
2017-12-05T17:18:51.368Z,6.80
2017-12-05T17:21:19.440Z,6.80
2017-12-05T17:23:47.546Z,6.80
2017-12-05T17:26:16.198Z,6.80
2017-12-05T17:28:44.065Z,6.80
2017-12-05T17:31:12.036Z,6.80
2017-12-05T17:33:39.902Z,6.80
2017-12-05T17:36:07.770Z,6.70
2017-12-05T17:38:35.638Z,6.70
2017-12-05T17:41:03.504Z,6.60
2017-12-05T17:43:31.375Z,6.60
2017-12-05T17:45:59.239Z,6.70
2017-12-05T17:48:27.107Z,6.70
2017-12-05T17:50:54.976Z,6.70
2017-12-05T17:53:22.946Z,6.70
2017-12-05T17:55:50.812Z,6.80
2017-12-05T17:58:18.678Z,6.80
2017-12-05T18:00:46.546Z,6.80
2017-12-05T18:03:14.413Z,6.80
2017-12-05T18:05:42.280Z,6.80
2017-12-05T18:08:10.250Z,6.80
2017-12-05T18:10:38.117Z,6.80
2017-12-05T18:13:05.899Z,6.80
2017-12-05T18:15:33.809Z,6.80
2017-12-05T18:18:01.719Z,6.80
2017-12-05T18:20:29.586Z,6.80
2017-12-05T18:22:57.453Z,6.70
2017-12-05T18:25:25.424Z,6.70
2017-12-05T18:27:53.394Z,6.70
2017-12-05T18:30:21.262Z,6.70
2017-12-05T18:32:49.164Z,6.80
2017-12-05T18:35:17.815Z,6.80
2017-12-05T18:37:45.784Z,6.80
2017-12-05T18:40:13.652Z,6.80
2017-12-05T18:42:41.519Z,6.70
2017-12-05T18:45:09.386Z,6.70
2017-12-05T18:47:37.359Z,6.70
2017-12-05T18:50:05.325Z,6.60
2017-12-05T18:52:33.192Z,6.60
2017-12-05T18:55:01.060Z,6.60
2017-12-05T18:57:29.030Z,6.60
2017-12-05T18:59:56.897Z,6.60
2017-12-05T19:02:24.867Z,6.60
2017-12-05T19:04:52.734Z,6.60
2017-12-05T19:07:20.601Z,6.60
2017-12-05T19:09:48.447Z,6.60
2017-12-05T19:12:16.335Z,6.60
2017-12-05T19:14:44.204Z,6.60
2017-12-05T19:17:12.072Z,6.60
2017-12-05T19:19:39.940Z,6.60
2017-12-05T19:22:07.908Z,6.70
2017-12-05T19:24:35.878Z,6.70
2017-12-05T19:27:03.856Z,6.70
2017-12-05T19:29:31.818Z,6.60
2017-12-05T19:31:59.787Z,6.60
2017-12-05T19:34:27.580Z,6.60
2017-12-05T19:36:55.624Z,6.60
2017-12-05T19:39:23.491Z,6.60
2017-12-05T19:41:51.290Z,6.60
2017-12-05T19:44:22.196Z,6.50
2017-12-05T19:46:50.062Z,6.60
2017-12-05T19:49:17.929Z,6.50
2017-12-05T19:51:45.899Z,6.40
2017-12-05T19:54:13.869Z,6.40
2017-12-05T19:56:41.839Z,6.40
2017-12-05T19:59:09.706Z,6.40
2017-12-05T20:01:37.574Z,6.40
2017-12-05T20:04:05.445Z,6.30
2017-12-05T20:06:33.308Z,6.40
2017-12-05T20:09:01.278Z,6.40
2017-12-05T20:11:29.248Z,6.30
2017-12-05T20:13:57.115Z,6.40
2017-12-05T20:16:25.085Z,6.40
2017-12-05T20:18:52.952Z,6.30
2017-12-05T20:21:20.819Z,6.40
2017-12-05T20:23:48.619Z,6.40
2017-12-05T20:26:17.271Z,6.40
2017-12-05T20:28:45.141Z,6.40
2017-12-05T20:31:13.929Z,6.50
2017-12-05T20:33:41.797Z,6.40
2017-12-05T20:36:09.662Z,6.50
2017-12-05T20:38:37.529Z,6.50
2017-12-05T20:41:05.397Z,6.50
2017-12-05T20:43:33.264Z,6.40
2017-12-05T20:46:01.132Z,6.40
2017-12-05T20:48:30.228Z,6.40
2017-12-05T20:50:59.441Z,6.40
2017-12-05T20:53:27.293Z,6.40
2017-12-05T20:55:55.901Z,6.40
2017-12-05T20:58:23.745Z,6.40
2017-12-05T21:00:51.612Z,6.40
2017-12-05T21:03:19.480Z,6.40
2017-12-05T21:05:47.347Z,6.40
2017-12-05T21:08:15.214Z,6.40
2017-12-05T21:10:43.082Z,6.40
2017-12-05T21:13:10.950Z,6.40
2017-12-05T21:15:38.715Z,6.50
2017-12-05T21:18:06.582Z,6.50
2017-12-05T21:20:35.267Z,6.60
2017-12-05T21:23:03.136Z,6.60
2017-12-05T21:25:31.002Z,6.60
2017-12-05T21:27:58.869Z,6.60
2017-12-05T21:30:26.736Z,6.60
2017-12-05T21:32:54.604Z,6.60
2017-12-05T21:35:22.472Z,6.50
2017-12-05T21:37:50.335Z,6.50
2017-12-05T21:40:18.206Z,6.50
2017-12-05T21:42:46.073Z,6.50
2017-12-05T21:45:13.940Z,6.50
2017-12-05T21:47:41.808Z,6.50
2017-12-05T21:50:09.675Z,6.60
2017-12-05T21:52:37.543Z,6.60
2017-12-05T21:55:05.411Z,6.50
2017-12-05T21:57:33.382Z,6.40
2017-12-05T22:00:01.248Z,6.40
2017-12-05T22:02:29.114Z,6.40
2017-12-05T22:04:56.982Z,6.40
2017-12-05T22:07:24.849Z,6.40
2017-12-05T22:09:52.716Z,6.40
2017-12-05T22:12:20.586Z,6.30
2017-12-05T22:14:48.450Z,6.30
2017-12-05T22:17:16.318Z,6.30
2017-12-05T22:19:44.186Z,6.30
2017-12-05T22:22:12.053Z,6.30
2017-12-05T22:24:39.925Z,6.30
2017-12-05T22:27:07.788Z,6.20
2017-12-05T22:29:35.654Z,6.30
2017-12-05T22:32:03.523Z,6.40
2017-12-05T22:34:31.390Z,6.40
2017-12-05T22:36:59.257Z,6.40
2017-12-05T22:39:27.124Z,6.30
2017-12-05T22:41:54.992Z,6.30
2017-12-05T22:44:22.858Z,6.20
2017-12-05T22:46:50.726Z,6.20
2017-12-05T22:49:18.593Z,6.30
2017-12-05T22:51:46.461Z,6.30
2017-12-05T22:54:14.328Z,6.30
2017-12-05T22:56:42.195Z,6.30
2017-12-05T22:59:10.063Z,6.30
2017-12-05T23:01:37.933Z,6.30
2017-12-05T23:04:05.797Z,6.30
2017-12-05T23:06:33.665Z,6.30
2017-12-05T23:09:01.533Z,6.30
2017-12-05T23:11:29.398Z,6.30
2017-12-05T23:13:57.266Z,6.30
2017-12-05T23:16:25.140Z,6.30
2017-12-05T23:18:53.017Z,6.30
2017-12-05T23:21:20.868Z,6.30
2017-12-05T23:23:48.737Z,6.30
2017-12-05T23:26:16.603Z,6.30
2017-12-05T23:28:44.473Z,6.30
2017-12-05T23:31:12.338Z,6.30
2017-12-05T23:33:40.204Z,6.30
2017-12-05T23:36:08.075Z,6.40
2017-12-05T23:38:36.758Z,6.30
2017-12-05T23:41:04.626Z,6.30
2017-12-05T23:43:32.698Z,6.30
2017-12-05T23:46:00.565Z,6.40
2017-12-05T23:48:28.432Z,6.30
2017-12-05T23:50:56.301Z,6.30
2017-12-05T23:53:24.166Z,6.30
2017-12-05T23:55:52.035Z,6.20
2017-12-05T23:58:19.902Z,6.20
